Shinkomaru No.8 — JK5142 — position and weather

sailwx.info

Track history (hours):
 
Tides and Currents Weather Stations Pressure Air Temp Water Temp Dewpoint Dewpoint Depression Visibility Wind Speed Wind Dir Waves Ship Positions

Shinkomaru No.8

Last reported at 2014-Aug-19 09:29 UTC. Time now 2014-Aug-22 11:52 UTC.
Position N 34°11' E 134°48'.

Length 61 m; draft 4.4 m.

Type: Tanker. MMSI: 431400035.

Date/timePositionNaut miles runAvg speedWind from/ knotsBaromVisibWave heightAir tempDewpointWater temp
2014-Aug-19 09:29N 34°11' E 134°48'1211.3
2014-Aug-19 08:26N 34°14' E 135°02'4 4.6
2014-Aug-19 07:31N 34°14' E 135°07'0 0.0
2014-Aug-19 06:31N 34°14' E 135°07'0 0.0
2014-Aug-19 05:31N 34°14' E 135°07'0 0.0
2014-Aug-19 04:31N 34°14' E 135°07'0 0.0
2014-Aug-19 03:31N 34°14' E 135°07'0 0.0
2014-Aug-19 02:31N 34°14' E 135°07'0 0.0
2014-Aug-19 01:31N 34°14' E 135°07'0 0.0
2014-Aug-19 00:31N 34°14' E 135°07'0 0.0
2014-Aug-18 23:31N 34°14' E 135°07'0 0.3
2014-Aug-18 22:33N 34°14' E 135°07'2 2.2
2014-Aug-18 21:31N 34°13' E 135°09'0 0.0
2014-Aug-18 20:31N 34°13' E 135°09'0 0.0
2014-Aug-18 19:31N 34°13' E 135°09'0 0.0
2014-Aug-18 18:31N 34°13' E 135°09'0 0.0
2014-Aug-18 17:31N 34°13' E 135°09'0 0.0
2014-Aug-18 16:31N 34°13' E 135°09'0 0.0
2014-Aug-18 15:31N 34°13' E 135°09'0 0.0
2014-Aug-18 14:31N 34°13' E 135°09'0 0.0
2014-Aug-18 13:31N 34°13' E 135°09'0 0.0
2014-Aug-18 12:31N 34°13' E 135°09'0 0.0
2014-Aug-18 11:31N 34°13' E 135°09'0 0.0
2014-Aug-18 10:31N 34°13' E 135°09'0 0.0
2014-Aug-18 09:28N 34°13' E 135°09'0 0.0
2014-Aug-18 08:31N 34°13' E 135°09'0 0.0
2014-Aug-18 07:31N 34°13' E 135°09'0 0.0
2014-Aug-18 06:25N 34°13' E 135°09'0 0.0
2014-Aug-18 05:31N 34°13' E 135°09'0 0.0
2014-Aug-18 04:31N 34°13' E 135°09'0 0.0
2014-Aug-18 03:31N 34°13' E 135°09'0 0.0
2014-Aug-18 02:31N 34°13' E 135°09'0 0.0
2014-Aug-18 01:31N 34°13' E 135°09'0 0.0
2014-Aug-18 00:31N 34°13' E 135°09'123 8.7
2014-Aug-17 10:30N 33°57' E 132°42'  
2014-Aug-13 05:32N 34°14' E 135°03'3 3.3
2014-Aug-13 04:33N 34°14' E 135°07'0 0.0
2014-Aug-13 03:33N 34°14' E 135°07'0 0.0
2014-Aug-13 02:33N 34°14' E 135°07'0 0.0
2014-Aug-13 01:33N 34°14' E 135°07'0 0.0
2014-Aug-13 00:15N 34°14' E 135°07'0 0.0
2014-Aug-12 23:33N 34°14' E 135°07'0 0.2
2014-Aug-12 22:34N 34°14' E 135°07'3 2.7
2014-Aug-12 21:33N 34°15' E 135°04'8 0.2
2014-Aug-11 10:32N 34°07' E 135°01'1111.5
2014-Aug-11 09:34N 34°18' E 134°59'1311.9
2014-Aug-11 08:29N 34°31' E 135°02'8 8.4
2014-Aug-11 07:33N 34°36' E 134°56'  
Track history (hours):
 
Tides and Currents Weather Stations Pressure Air Temp Water Temp Dewpoint Dewpoint Depression Visibility Wind Speed Wind Dir Waves Ship Positions

Shinkomaru No.8

Last reported at 2014-Aug-19 09:29 UTC. Time now 2014-Aug-22 11:52 UTC.
Position N 34°11' E 134°48'.

Length 61 m; draft 4.4 m.

Type: Tanker. MMSI: 431400035.

Date/timePositionNaut miles runAvg speedWind from/ knotsBaromVisibWave heightAir tempDewpointWater temp
2014-Aug-19 09:29N 34°11' E 134°48'1211.3
2014-Aug-19 08:26N 34°14' E 135°02'4 4.6
2014-Aug-19 07:31N 34°14' E 135°07'0 0.0
2014-Aug-19 06:31N 34°14' E 135°07'0 0.0
2014-Aug-19 05:31N 34°14' E 135°07'0 0.0
2014-Aug-19 04:31N 34°14' E 135°07'0 0.0
2014-Aug-19 03:31N 34°14' E 135°07'0 0.0
2014-Aug-19 02:31N 34°14' E 135°07'0 0.0
2014-Aug-19 01:31N 34°14' E 135°07'0 0.0
2014-Aug-19 00:31N 34°14' E 135°07'0 0.0
2014-Aug-18 23:31N 34°14' E 135°07'0 0.3
2014-Aug-18 22:33N 34°14' E 135°07'2 2.2
2014-Aug-18 21:31N 34°13' E 135°09'0 0.0
2014-Aug-18 20:31N 34°13' E 135°09'0 0.0
2014-Aug-18 19:31N 34°13' E 135°09'0 0.0
2014-Aug-18 18:31N 34°13' E 135°09'0 0.0
2014-Aug-18 17:31N 34°13' E 135°09'0 0.0
2014-Aug-18 16:31N 34°13' E 135°09'0 0.0
2014-Aug-18 15:31N 34°13' E 135°09'0 0.0
2014-Aug-18 14:31N 34°13' E 135°09'0 0.0
2014-Aug-18 13:31N 34°13' E 135°09'0 0.0
2014-Aug-18 12:31N 34°13' E 135°09'0 0.0
2014-Aug-18 11:31N 34°13' E 135°09'0 0.0
2014-Aug-18 10:31N 34°13' E 135°09'0 0.0
2014-Aug-18 09:28N 34°13' E 135°09'0 0.0
2014-Aug-18 08:31N 34°13' E 135°09'0 0.0
2014-Aug-18 07:31N 34°13' E 135°09'0 0.0
2014-Aug-18 06:25N 34°13' E 135°09'0 0.0
2014-Aug-18 05:31N 34°13' E 135°09'0 0.0
2014-Aug-18 04:31N 34°13' E 135°09'0 0.0
2014-Aug-18 03:31N 34°13' E 135°09'0 0.0
2014-Aug-18 02:31N 34°13' E 135°09'0 0.0
2014-Aug-18 01:31N 34°13' E 135°09'0 0.0
2014-Aug-18 00:31N 34°13' E 135°09'123 8.7
2014-Aug-17 10:30N 33°57' E 132°42'  
2014-Aug-13 05:32N 34°14' E 135°03'3 3.3
2014-Aug-13 04:33N 34°14' E 135°07'0 0.0
2014-Aug-13 03:33N 34°14' E 135°07'0 0.0
2014-Aug-13 02:33N 34°14' E 135°07'0 0.0
2014-Aug-13 01:33N 34°14' E 135°07'0 0.0
2014-Aug-13 00:15N 34°14' E 135°07'0 0.0
2014-Aug-12 23:33N 34°14' E 135°07'0 0.2
2014-Aug-12 22:34N 34°14' E 135°07'3 2.7
2014-Aug-12 21:33N 34°15' E 135°04'8 0.2
2014-Aug-11 10:32N 34°07' E 135°01'1111.5
2014-Aug-11 09:34N 34°18' E 134°59'1311.9
2014-Aug-11 08:29N 34°31' E 135°02'8 8.4
2014-Aug-11 07:33N 34°36' E 134°56'  

Dump ship's entire track history